sensor_id;sensor_type;location;lat;lon;timestamp;temperature;humidity
71088;SHT31;58747;50.674;4.616;2022-09-24T00:00:43;12.88;89.24
71088;SHT31;58747;50.674;4.616;2022-09-24T00:03:09;12.89;89.20
71088;SHT31;58747;50.674;4.616;2022-09-24T00:05:37;12.88;89.13
71088;SHT31;58747;50.674;4.616;2022-09-24T00:08:03;12.83;89.26
71088;SHT31;58747;50.674;4.616;2022-09-24T00:10:29;12.85;89.55
71088;SHT31;58747;50.674;4.616;2022-09-24T00:12:54;12.85;89.37
71088;SHT31;58747;50.674;4.616;2022-09-24T00:15:19;12.87;89.26
71088;SHT31;58747;50.674;4.616;2022-09-24T00:17:45;12.89;89.18
71088;SHT31;58747;50.674;4.616;2022-09-24T00:20:11;12.81;89.23
71088;SHT31;58747;50.674;4.616;2022-09-24T00:22:36;12.78;89.37
71088;SHT31;58747;50.674;4.616;2022-09-24T00:25:02;12.80;89.37
71088;SHT31;58747;50.674;4.616;2022-09-24T00:27:46;12.83;89.27
71088;SHT31;58747;50.674;4.616;2022-09-24T00:30:11;12.83;89.14
71088;SHT31;58747;50.674;4.616;2022-09-24T00:32:36;12.84;89.18
71088;SHT31;58747;50.674;4.616;2022-09-24T00:35:02;12.84;89.16
71088;SHT31;58747;50.674;4.616;2022-09-24T00:37:27;12.81;89.40
71088;SHT31;58747;50.674;4.616;2022-09-24T00:39:53;12.81;89.52
71088;SHT31;58747;50.674;4.616;2022-09-24T00:42:18;12.85;89.45
71088;SHT31;58747;50.674;4.616;2022-09-24T00:44:50;12.80;89.36
71088;SHT31;58747;50.674;4.616;2022-09-24T00:47:31;12.78;89.85
71088;SHT31;58747;50.674;4.616;2022-09-24T00:53:02;12.80;89.54
71088;SHT31;58747;50.674;4.616;2022-09-24T00:55:30;12.80;89.51
71088;SHT31;58747;50.674;4.616;2022-09-24T00:57:59;12.78;89.40
71088;SHT31;58747;50.674;4.616;2022-09-24T01:00:26;12.83;89.28
71088;SHT31;58747;50.674;4.616;2022-09-24T01:03:04;12.80;89.28
71088;SHT31;58747;50.674;4.616;2022-09-24T01:05:30;12.77;89.69
71088;SHT31;58747;50.674;4.616;2022-09-24T01:07:56;12.83;89.58
71088;SHT31;58747;50.674;4.616;2022-09-24T01:10:36;12.73;89.93
71088;SHT31;58747;50.674;4.616;2022-09-24T01:21:53;12.85;88.81
71088;SHT31;58747;50.674;4.616;2022-09-24T01:24:44;12.87;88.94
71088;SHT31;58747;50.674;4.616;2022-09-24T01:28:12;12.85;89.10
71088;SHT31;58747;50.674;4.616;2022-09-24T01:30:11;12.83;89.03
71088;SHT31;58747;50.674;4.616;2022-09-24T01:32:44;12.84;88.90
71088;SHT31;58747;50.674;4.616;2022-09-24T01:35:57;12.80;89.00
71088;SHT31;58747;50.674;4.616;2022-09-24T01:40:35;12.80;89.15
71088;SHT31;58747;50.674;4.616;2022-09-24T01:43:04;12.83;89.06
71088;SHT31;58747;50.674;4.616;2022-09-24T01:45:30;12.81;88.85
71088;SHT31;58747;50.674;4.616;2022-09-24T01:47:58;12.83;88.97
71088;SHT31;58747;50.674;4.616;2022-09-24T01:50:32;12.75;89.58
71088;SHT31;58747;50.674;4.616;2022-09-24T01:53:47;12.75;89.31
71088;SHT31;58747;50.674;4.616;2022-09-24T01:56:17;12.73;89.30
71088;SHT31;58747;50.674;4.616;2022-09-24T01:58:54;12.74;89.21
71088;SHT31;58747;50.674;4.616;2022-09-24T02:01:25;12.69;89.28
71088;SHT31;58747;50.674;4.616;2022-09-24T02:04:00;12.65;89.51
71088;SHT31;58747;50.674;4.616;2022-09-24T02:06:34;12.67;89.55
71088;SHT31;58747;50.674;4.616;2022-09-24T02:09:01;12.65;89.56
71088;SHT31;58747;50.674;4.616;2022-09-24T02:11:27;12.67;89.53
71088;SHT31;58747;50.674;4.616;2022-09-24T02:14:00;12.69;89.57
71088;SHT31;58747;50.674;4.616;2022-09-24T02:16:30;12.67;89.15
71088;SHT31;58747;50.674;4.616;2022-09-24T02:19:00;12.67;89.39
71088;SHT31;58747;50.674;4.616;2022-09-24T02:21:29;12.65;89.35
71088;SHT31;58747;50.674;4.616;2022-09-24T02:24:04;12.69;89.02
71088;SHT31;58747;50.674;4.616;2022-09-24T02:26:32;12.68;89.19
71088;SHT31;58747;50.674;4.616;2022-09-24T02:28:58;12.69;89.04
71088;SHT31;58747;50.674;4.616;2022-09-24T02:31:27;12.65;89.31
71088;SHT31;58747;50.674;4.616;2022-09-24T02:33:56;12.65;89.48
71088;SHT31;58747;50.674;4.616;2022-09-24T02:36:42;12.61;89.91
71088;SHT31;58747;50.674;4.616;2022-09-24T02:39:07;12.55;89.94
71088;SHT31;58747;50.674;4.616;2022-09-24T02:41:33;12.54;90.20
71088;SHT31;58747;50.674;4.616;2022-09-24T02:44:00;12.51;90.44
71088;SHT31;58747;50.674;4.616;2022-09-24T02:46:25;12.50;90.77
71088;SHT31;58747;50.674;4.616;2022-09-24T02:48:50;12.46;90.89
71088;SHT31;58747;50.674;4.616;2022-09-24T02:51:16;12.43;91.10
71088;SHT31;58747;50.674;4.616;2022-09-24T02:53:41;12.40;91.21
71088;SHT31;58747;50.674;4.616;2022-09-24T02:56:06;12.38;91.45
71088;SHT31;58747;50.674;4.616;2022-09-24T02:58:33;12.38;91.62
71088;SHT31;58747;50.674;4.616;2022-09-24T03:00:58;12.38;91.79
71088;SHT31;58747;50.674;4.616;2022-09-24T03:03:24;12.41;91.99
71088;SHT31;58747;50.674;4.616;2022-09-24T03:05:50;12.36;92.04
71088;SHT31;58747;50.674;4.616;2022-09-24T03:08:17;12.34;92.20
71088;SHT31;58747;50.674;4.616;2022-09-24T03:10:43;12.33;92.36
71088;SHT31;58747;50.674;4.616;2022-09-24T03:13:08;12.30;92.70
71088;SHT31;58747;50.674;4.616;2022-09-24T03:15:35;12.26;92.92
71088;SHT31;58747;50.674;4.616;2022-09-24T03:18:00;12.25;92.99
71088;SHT31;58747;50.674;4.616;2022-09-24T03:20:25;12.25;93.23
71088;SHT31;58747;50.674;4.616;2022-09-24T03:22:51;12.23;93.31
71088;SHT31;58747;50.674;4.616;2022-09-24T03:25:18;12.25;93.62
71088;SHT31;58747;50.674;4.616;2022-09-24T03:27:43;12.22;93.81
71088;SHT31;58747;50.674;4.616;2022-09-24T03:30:09;12.19;94.07
71088;SHT31;58747;50.674;4.616;2022-09-24T03:32:53;12.22;94.16
71088;SHT31;58747;50.674;4.616;2022-09-24T03:35:18;12.19;94.11
71088;SHT31;58747;50.674;4.616;2022-09-24T03:37:44;12.19;94.05
71088;SHT31;58747;50.674;4.616;2022-09-24T03:40:10;12.17;94.25
71088;SHT31;58747;50.674;4.616;2022-09-24T03:42:36;12.19;94.41
71088;SHT31;58747;50.674;4.616;2022-09-24T03:45:01;12.16;94.25
71088;SHT31;58747;50.674;4.616;2022-09-24T03:47:27;12.17;94.49
71088;SHT31;58747;50.674;4.616;2022-09-24T03:49:53;12.17;94.68
71088;SHT31;58747;50.674;4.616;2022-09-24T03:52:18;12.17;94.71
71088;SHT31;58747;50.674;4.616;2022-09-24T03:54:44;12.19;94.61
71088;SHT31;58747;50.674;4.616;2022-09-24T03:57:09;12.20;94.87
71088;SHT31;58747;50.674;4.616;2022-09-24T03:59:39;12.20;94.72
71088;SHT31;58747;50.674;4.616;2022-09-24T04:02:04;12.26;94.97
71088;SHT31;58747;50.674;4.616;2022-09-24T04:04:29;12.20;95.10
71088;SHT31;58747;50.674;4.616;2022-09-24T04:06:55;12.19;94.77
71088;SHT31;58747;50.674;4.616;2022-09-24T04:09:21;12.17;94.89
71088;SHT31;58747;50.674;4.616;2022-09-24T04:11:46;12.15;95.17
71088;SHT31;58747;50.674;4.616;2022-09-24T04:14:11;12.12;95.17
71088;SHT31;58747;50.674;4.616;2022-09-24T04:16:36;12.12;95.25
71088;SHT31;58747;50.674;4.616;2022-09-24T04:19:02;12.10;95.02
71088;SHT31;58747;50.674;4.616;2022-09-24T04:21:27;12.13;95.59
71088;SHT31;58747;50.674;4.616;2022-09-24T04:23:54;12.09;95.44
71088;SHT31;58747;50.674;4.616;2022-09-24T04:26:19;12.07;95.35
71088;SHT31;58747;50.674;4.616;2022-09-24T04:28:45;12.07;95.37
71088;SHT31;58747;50.674;4.616;2022-09-24T04:31:10;12.09;95.73
71088;SHT31;58747;50.674;4.616;2022-09-24T04:33:35;12.07;95.43
71088;SHT31;58747;50.674;4.616;2022-09-24T04:36:01;12.09;95.39
71088;SHT31;58747;50.674;4.616;2022-09-24T04:38:26;12.09;95.38
71088;SHT31;58747;50.674;4.616;2022-09-24T04:40:51;12.19;95.15
71088;SHT31;58747;50.674;4.616;2022-09-24T04:43:17;12.33;94.73
71088;SHT31;58747;50.674;4.616;2022-09-24T04:45:43;12.33;94.16
71088;SHT31;58747;50.674;4.616;2022-09-24T04:48:09;12.25;94.86
71088;SHT31;58747;50.674;4.616;2022-09-24T04:50:35;12.15;95.00
71088;SHT31;58747;50.674;4.616;2022-09-24T04:53:01;12.13;95.27
71088;SHT31;58747;50.674;4.616;2022-09-24T04:55:27;12.10;95.48
71088;SHT31;58747;50.674;4.616;2022-09-24T04:57:56;12.12;95.38
71088;SHT31;58747;50.674;4.616;2022-09-24T05:00:22;12.12;95.36
71088;SHT31;58747;50.674;4.616;2022-09-24T05:02:55;12.09;95.30
71088;SHT31;58747;50.674;4.616;2022-09-24T05:05:21;12.13;95.40
71088;SHT31;58747;50.674;4.616;2022-09-24T05:07:47;12.09;95.54
71088;SHT31;58747;50.674;4.616;2022-09-24T05:10:13;12.07;95.73
71088;SHT31;58747;50.674;4.616;2022-09-24T05:12:39;12.09;95.70
71088;SHT31;58747;50.674;4.616;2022-09-24T05:15:05;12.03;95.60
71088;SHT31;58747;50.674;4.616;2022-09-24T05:17:30;12.05;95.86
71088;SHT31;58747;50.674;4.616;2022-09-24T05:19:56;12.02;95.82
71088;SHT31;58747;50.674;4.616;2022-09-24T05:22:24;12.05;96.11
71088;SHT31;58747;50.674;4.616;2022-09-24T05:24:50;12.00;95.92
71088;SHT31;58747;50.674;4.616;2022-09-24T05:27:15;11.99;95.88
71088;SHT31;58747;50.674;4.616;2022-09-24T05:29:42;12.03;95.94
71088;SHT31;58747;50.674;4.616;2022-09-24T05:32:12;12.03;95.93
71088;SHT31;58747;50.674;4.616;2022-09-24T05:34:38;12.00;95.92
71088;SHT31;58747;50.674;4.616;2022-09-24T05:37:05;12.05;95.86
71088;SHT31;58747;50.674;4.616;2022-09-24T05:39:31;12.03;96.29
71088;SHT31;58747;50.674;4.616;2022-09-24T05:41:56;12.06;96.18
71088;SHT31;58747;50.674;4.616;2022-09-24T05:44:22;12.02;96.17
71088;SHT31;58747;50.674;4.616;2022-09-24T05:46:48;12.03;96.14
71088;SHT31;58747;50.674;4.616;2022-09-24T05:49:14;12.03;96.18
71088;SHT31;58747;50.674;4.616;2022-09-24T05:51:40;12.03;96.31
71088;SHT31;58747;50.674;4.616;2022-09-24T05:54:05;12.02;96.31
71088;SHT31;58747;50.674;4.616;2022-09-24T05:56:30;12.03;96.15
71088;SHT31;58747;50.674;4.616;2022-09-24T05:58:56;12.07;96.34
71088;SHT31;58747;50.674;4.616;2022-09-24T06:01:21;12.05;96.44
71088;SHT31;58747;50.674;4.616;2022-09-24T06:03:46;12.07;96.19
71088;SHT31;58747;50.674;4.616;2022-09-24T06:06:12;12.00;96.47
71088;SHT31;58747;50.674;4.616;2022-09-24T06:08:37;12.00;96.24
71088;SHT31;58747;50.674;4.616;2022-09-24T06:11:05;11.99;96.24
71088;SHT31;58747;50.674;4.616;2022-09-24T06:13:31;12.02;96.48
71088;SHT31;58747;50.674;4.616;2022-09-24T06:16:06;12.03;96.48
71088;SHT31;58747;50.674;4.616;2022-09-24T06:18:33;12.07;96.65
71088;SHT31;58747;50.674;4.616;2022-09-24T06:21:03;12.07;96.87
71088;SHT31;58747;50.674;4.616;2022-09-24T06:23:29;12.07;96.65
71088;SHT31;58747;50.674;4.616;2022-09-24T06:25:56;12.10;96.56
71088;SHT31;58747;50.674;4.616;2022-09-24T06:28:21;12.15;96.53
71088;SHT31;58747;50.674;4.616;2022-09-24T06:30:46;12.15;96.39
71088;SHT31;58747;50.674;4.616;2022-09-24T06:33:12;12.17;96.66
71088;SHT31;58747;50.674;4.616;2022-09-24T06:35:42;12.16;96.56
71088;SHT31;58747;50.674;4.616;2022-09-24T06:38:13;12.17;96.84
71088;SHT31;58747;50.674;4.616;2022-09-24T06:40:39;12.16;96.54
71088;SHT31;58747;50.674;4.616;2022-09-24T06:43:05;12.13;96.65
71088;SHT31;58747;50.674;4.616;2022-09-24T06:45:31;12.16;96.61
71088;SHT31;58747;50.674;4.616;2022-09-24T06:47:58;12.13;96.64
71088;SHT31;58747;50.674;4.616;2022-09-24T06:50:25;12.13;96.53
71088;SHT31;58747;50.674;4.616;2022-09-24T06:52:52;12.13;96.67
71088;SHT31;58747;50.674;4.616;2022-09-24T06:55:18;12.13;96.81
71088;SHT31;58747;50.674;4.616;2022-09-24T06:57:43;12.17;96.64
71088;SHT31;58747;50.674;4.616;2022-09-24T07:00:11;12.16;96.78
71088;SHT31;58747;50.674;4.616;2022-09-24T07:02:37;12.19;96.77
71088;SHT31;58747;50.674;4.616;2022-09-24T07:05:03;12.26;96.66
71088;SHT31;58747;50.674;4.616;2022-09-24T07:07:28;12.22;96.79
71088;SHT31;58747;50.674;4.616;2022-09-24T07:09:58;12.22;96.85
71088;SHT31;58747;50.674;4.616;2022-09-24T07:12:24;12.23;96.77
71088;SHT31;58747;50.674;4.616;2022-09-24T07:14:50;12.26;96.90
71088;SHT31;58747;50.674;4.616;2022-09-24T07:17:15;12.27;96.87
71088;SHT31;58747;50.674;4.616;2022-09-24T07:19:41;12.46;96.65
71088;SHT31;58747;50.674;4.616;2022-09-24T07:22:07;12.53;96.24
71088;SHT31;58747;50.674;4.616;2022-09-24T07:24:32;12.53;95.90
71088;SHT31;58747;50.674;4.616;2022-09-24T07:26:58;12.53;96.14
71088;SHT31;58747;50.674;4.616;2022-09-24T07:29:23;12.47;96.38
71088;SHT31;58747;50.674;4.616;2022-09-24T07:31:49;12.54;96.14
71088;SHT31;58747;50.674;4.616;2022-09-24T07:34:14;12.58;95.71
71088;SHT31;58747;50.674;4.616;2022-09-24T07:36:40;12.53;95.81
71088;SHT31;58747;50.674;4.616;2022-09-24T07:39:06;12.48;96.18
71088;SHT31;58747;50.674;4.616;2022-09-24T07:41:31;12.44;96.40
71088;SHT31;58747;50.674;4.616;2022-09-24T07:43:58;12.46;96.60
71088;SHT31;58747;50.674;4.616;2022-09-24T07:46:23;12.44;96.62
71088;SHT31;58747;50.674;4.616;2022-09-24T07:48:52;12.46;96.50
71088;SHT31;58747;50.674;4.616;2022-09-24T07:51:20;12.53;96.33
71088;SHT31;58747;50.674;4.616;2022-09-24T07:53:45;12.50;96.35
71088;SHT31;58747;50.674;4.616;2022-09-24T07:56:11;12.47;96.41
71088;SHT31;58747;50.674;4.616;2022-09-24T07:58:36;12.48;96.32
71088;SHT31;58747;50.674;4.616;2022-09-24T08:01:01;12.53;96.52
71088;SHT31;58747;50.674;4.616;2022-09-24T08:03:27;12.48;96.62
71088;SHT31;58747;50.674;4.616;2022-09-24T08:05:52;12.48;96.59
71088;SHT31;58747;50.674;4.616;2022-09-24T08:08:23;12.48;96.74
71088;SHT31;58747;50.674;4.616;2022-09-24T08:10:48;12.54;96.87
71088;SHT31;58747;50.674;4.616;2022-09-24T08:13:14;12.55;96.76
71088;SHT31;58747;50.674;4.616;2022-09-24T08:15:40;12.54;96.79
71088;SHT31;58747;50.674;4.616;2022-09-24T08:18:05;12.60;96.76
71088;SHT31;58747;50.674;4.616;2022-09-24T08:20:31;12.65;96.91
71088;SHT31;58747;50.674;4.616;2022-09-24T08:23:01;12.67;96.78
71088;SHT31;58747;50.674;4.616;2022-09-24T08:25:27;12.69;96.84
71088;SHT31;58747;50.674;4.616;2022-09-24T08:27:52;12.74;96.81
71088;SHT31;58747;50.674;4.616;2022-09-24T08:30:17;12.77;96.51
71088;SHT31;58747;50.674;4.616;2022-09-24T08:32:46;12.81;96.75
71088;SHT31;58747;50.674;4.616;2022-09-24T08:35:12;12.89;96.71
71088;SHT31;58747;50.674;4.616;2022-09-24T08:37:40;12.92;96.52
71088;SHT31;58747;50.674;4.616;2022-09-24T08:40:06;12.98;96.47
71088;SHT31;58747;50.674;4.616;2022-09-24T08:42:57;12.94;96.30
71088;SHT31;58747;50.674;4.616;2022-09-24T08:45:25;12.95;96.29
71088;SHT31;58747;50.674;4.616;2022-09-24T08:48:15;12.99;96.21
71088;SHT31;58747;50.674;4.616;2022-09-24T08:50:53;13.02;96.32
71088;SHT31;58747;50.674;4.616;2022-09-24T08:56:29;13.12;95.75
71088;SHT31;58747;50.674;4.616;2022-09-24T08:58:58;13.18;95.88
71088;SHT31;58747;50.674;4.616;2022-09-24T09:01:46;13.13;95.76
71088;SHT31;58747;50.674;4.616;2022-09-24T09:04:28;13.15;95.61
71088;SHT31;58747;50.674;4.616;2022-09-24T09:07:00;13.12;95.95
71088;SHT31;58747;50.674;4.616;2022-09-24T09:09:39;13.15;96.19
71088;SHT31;58747;50.674;4.616;2022-09-24T09:12:11;13.16;96.00
71088;SHT31;58747;50.674;4.616;2022-09-24T09:14:44;13.13;96.16
71088;SHT31;58747;50.674;4.616;2022-09-24T09:17:49;13.20;96.02
71088;SHT31;58747;50.674;4.616;2022-09-24T09:22:51;13.49;94.72
71088;SHT31;58747;50.674;4.616;2022-09-24T09:25:23;13.52;94.67
71088;SHT31;58747;50.674;4.616;2022-09-24T09:28:00;13.49;94.62
71088;SHT31;58747;50.674;4.616;2022-09-24T09:30:33;13.53;94.59
71088;SHT31;58747;50.674;4.616;2022-09-24T09:41:40;13.74;94.63
71088;SHT31;58747;50.674;4.616;2022-09-24T09:44:13;13.78;94.29
71088;SHT31;58747;50.674;4.616;2022-09-24T09:46:46;13.90;93.87
71088;SHT31;58747;50.674;4.616;2022-09-24T09:49:16;14.01;93.51
71088;SHT31;58747;50.674;4.616;2022-09-24T09:51:43;14.11;93.33
71088;SHT31;58747;50.674;4.616;2022-09-24T09:54:10;14.15;93.52
71088;SHT31;58747;50.674;4.616;2022-09-24T09:56:48;14.18;93.31
71088;SHT31;58747;50.674;4.616;2022-09-24T09:59:20;14.21;92.82
71088;SHT31;58747;50.674;4.616;2022-09-24T10:01:48;14.15;92.76
71088;SHT31;58747;50.674;4.616;2022-09-24T10:07:03;14.39;92.80
71088;SHT31;58747;50.674;4.616;2022-09-24T10:09:28;14.45;93.02
71088;SHT31;58747;50.674;4.616;2022-09-24T10:12:08;14.43;93.19
71088;SHT31;58747;50.674;4.616;2022-09-24T10:14:34;14.39;92.82
71088;SHT31;58747;50.674;4.616;2022-09-24T10:16:59;14.35;92.36
71088;SHT31;58747;50.674;4.616;2022-09-24T10:19:33;14.42;92.48
71088;SHT31;58747;50.674;4.616;2022-09-24T10:22:07;14.26;91.47
71088;SHT31;58747;50.674;4.616;2022-09-24T10:24:34;14.26;92.64
71088;SHT31;58747;50.674;4.616;2022-09-24T10:27:09;14.31;91.90
71088;SHT31;58747;50.674;4.616;2022-09-24T10:29:35;14.32;91.48
71088;SHT31;58747;50.674;4.616;2022-09-24T10:32:21;14.36;92.15
71088;SHT31;58747;50.674;4.616;2022-09-24T10:34:58;14.39;92.17
71088;SHT31;58747;50.674;4.616;2022-09-24T10:37:25;14.42;92.27
71088;SHT31;58747;50.674;4.616;2022-09-24T10:40:09;14.36;92.10
71088;SHT31;58747;50.674;4.616;2022-09-24T10:42:36;14.45;91.84
71088;SHT31;58747;50.674;4.616;2022-09-24T10:45:02;14.43;90.88
71088;SHT31;58747;50.674;4.616;2022-09-24T10:47:52;14.48;92.38
71088;SHT31;58747;50.674;4.616;2022-09-24T10:53:06;14.26;91.16
71088;SHT31;58747;50.674;4.616;2022-09-24T10:55:56;14.29;91.53
71088;SHT31;58747;50.674;4.616;2022-09-24T10:58:40;14.26;92.39
71088;SHT31;58747;50.674;4.616;2022-09-24T11:17:31;14.52;92.38
71088;SHT31;58747;50.674;4.616;2022-09-24T11:28:21;14.53;91.96
71088;SHT31;58747;50.674;4.616;2022-09-24T11:41:43;14.59;92.01
71088;SHT31;58747;50.674;4.616;2022-09-24T11:47:04;14.43;92.07
71088;SHT31;58747;50.674;4.616;2022-09-24T11:49:59;14.32;92.12
71088;SHT31;58747;50.674;4.616;2022-09-24T11:55:27;14.33;93.00
71088;SHT31;58747;50.674;4.616;2022-09-24T11:58:16;14.29;92.76
71088;SHT31;58747;50.674;4.616;2022-09-24T12:03:37;14.28;93.40
71088;SHT31;58747;50.674;4.616;2022-09-24T12:06:17;14.28;93.27
71088;SHT31;58747;50.674;4.616;2022-09-24T12:08:49;14.28;93.41
71088;SHT31;58747;50.674;4.616;2022-09-24T12:11:37;14.24;92.99
71088;SHT31;58747;50.674;4.616;2022-09-24T12:14:18;14.22;93.00
71088;SHT31;58747;50.674;4.616;2022-09-24T12:16:48;14.17;92.10
71088;SHT31;58747;50.674;4.616;2022-09-24T12:21:48;14.12;92.62
71088;SHT31;58747;50.674;4.616;2022-09-24T12:24:37;14.14;93.37
71088;SHT31;58747;50.674;4.616;2022-09-24T12:27:32;14.24;93.77
71088;SHT31;58747;50.674;4.616;2022-09-24T12:30:17;14.26;92.59
71088;SHT31;58747;50.674;4.616;2022-09-24T12:33:18;14.25;92.69
71088;SHT31;58747;50.674;4.616;2022-09-24T12:38:44;14.22;91.68
71088;SHT31;58747;50.674;4.616;2022-09-24T12:41:31;14.17;91.20
71088;SHT31;58747;50.674;4.616;2022-09-24T12:46:40;14.18;91.73
71088;SHT31;58747;50.674;4.616;2022-09-24T12:51:55;14.25;91.82
71088;SHT31;58747;50.674;4.616;2022-09-24T12:54:26;14.28;92.48
71088;SHT31;58747;50.674;4.616;2022-09-24T12:57:06;14.35;92.50
71088;SHT31;58747;50.674;4.616;2022-09-24T12:59:32;14.38;93.23
71088;SHT31;58747;50.674;4.616;2022-09-24T13:02:46;14.43;93.11
71088;SHT31;58747;50.674;4.616;2022-09-24T13:05:25;14.35;92.15
71088;SHT31;58747;50.674;4.616;2022-09-24T13:10:59;14.41;92.21
71088;SHT31;58747;50.674;4.616;2022-09-24T13:13:29;14.38;92.82
71088;SHT31;58747;50.674;4.616;2022-09-24T13:16:17;14.38;91.62
71088;SHT31;58747;50.674;4.616;2022-09-24T13:18:51;14.36;91.70
71088;SHT31;58747;50.674;4.616;2022-09-24T13:21:25;14.49;91.69
71088;SHT31;58747;50.674;4.616;2022-09-24T13:23:51;14.53;90.94
71088;SHT31;58747;50.674;4.616;2022-09-24T13:28:56;14.53;91.92
71088;SHT31;58747;50.674;4.616;2022-09-24T13:31:43;14.50;92.63
71088;SHT31;58747;50.674;4.616;2022-09-24T13:34:25;14.50;92.26
71088;SHT31;58747;50.674;4.616;2022-09-24T13:36:58;14.43;91.57
71088;SHT31;58747;50.674;4.616;2022-09-24T13:39:44;14.45;92.38
71088;SHT31;58747;50.674;4.616;2022-09-24T13:47:37;14.36;92.72
71088;SHT31;58747;50.674;4.616;2022-09-24T13:50:36;14.38;92.68
71088;SHT31;58747;50.674;4.616;2022-09-24T13:53:28;14.33;92.96
71088;SHT31;58747;50.674;4.616;2022-09-24T13:55:58;14.38;93.19
71088;SHT31;58747;50.674;4.616;2022-09-24T13:58:34;14.35;92.88
71088;SHT31;58747;50.674;4.616;2022-09-24T14:04:04;14.32;93.55
71088;SHT31;58747;50.674;4.616;2022-09-24T14:06:45;14.33;93.55
71088;SHT31;58747;50.674;4.616;2022-09-24T14:09:25;14.29;93.09
71088;SHT31;58747;50.674;4.616;2022-09-24T14:12:12;14.25;93.56
71088;SHT31;58747;50.674;4.616;2022-09-24T14:14:42;14.20;93.25
71088;SHT31;58747;50.674;4.616;2022-09-24T14:17:13;14.22;93.70
71088;SHT31;58747;50.674;4.616;2022-09-24T14:19:39;14.45;92.48
71088;SHT31;58747;50.674;4.616;2022-09-24T14:22:10;14.35;91.97
71088;SHT31;58747;50.674;4.616;2022-09-24T14:24:44;14.32;92.52
71088;SHT31;58747;50.674;4.616;2022-09-24T14:27:15;14.39;93.15
71088;SHT31;58747;50.674;4.616;2022-09-24T14:29:44;14.48;92.72
71088;SHT31;58747;50.674;4.616;2022-09-24T14:32:23;14.33;92.90
71088;SHT31;58747;50.674;4.616;2022-09-24T14:34:52;14.21;92.69
71088;SHT31;58747;50.674;4.616;2022-09-24T14:37:30;14.12;93.30
71088;SHT31;58747;50.674;4.616;2022-09-24T14:40:00;14.02;93.71
71088;SHT31;58747;50.674;4.616;2022-09-24T14:42:45;13.98;94.14
71088;SHT31;58747;50.674;4.616;2022-09-24T14:45:19;13.90;93.73
71088;SHT31;58747;50.674;4.616;2022-09-24T14:47:45;13.88;94.24
71088;SHT31;58747;50.674;4.616;2022-09-24T14:50:30;13.92;94.81
71088;SHT31;58747;50.674;4.616;2022-09-24T14:52:59;13.87;94.79
71088;SHT31;58747;50.674;4.616;2022-09-24T14:55:42;13.78;94.81
71088;SHT31;58747;50.674;4.616;2022-09-24T15:01:04;13.69;94.97
71088;SHT31;58747;50.674;4.616;2022-09-24T15:03:52;13.67;94.97
71088;SHT31;58747;50.674;4.616;2022-09-24T15:06:24;13.62;94.98
71088;SHT31;58747;50.674;4.616;2022-09-24T15:08:57;13.62;95.46
71088;SHT31;58747;50.674;4.616;2022-09-24T15:11:25;13.62;95.47
71088;SHT31;58747;50.674;4.616;2022-09-24T15:16:34;13.67;95.62
71088;SHT31;58747;50.674;4.616;2022-09-24T15:21:31;13.67;95.43
71088;SHT31;58747;50.674;4.616;2022-09-24T15:23:56;13.63;95.33
71088;SHT31;58747;50.674;4.616;2022-09-24T15:26:26;13.63;95.42
71088;SHT31;58747;50.674;4.616;2022-09-24T15:28:52;13.60;95.27
71088;SHT31;58747;50.674;4.616;2022-09-24T15:31:20;13.62;95.22
71088;SHT31;58747;50.674;4.616;2022-09-24T15:33:45;13.59;94.83
71088;SHT31;58747;50.674;4.616;2022-09-24T15:36:10;13.63;95.29
71088;SHT31;58747;50.674;4.616;2022-09-24T15:38:36;13.62;95.42
71088;SHT31;58747;50.674;4.616;2022-09-24T15:41:01;13.56;95.41
71088;SHT31;58747;50.674;4.616;2022-09-24T15:43:27;13.49;96.10
71088;SHT31;58747;50.674;4.616;2022-09-24T15:45:52;13.47;95.97
71088;SHT31;58747;50.674;4.616;2022-09-24T15:48:18;13.52;96.19
71088;SHT31;58747;50.674;4.616;2022-09-24T15:50:45;13.53;96.13
71088;SHT31;58747;50.674;4.616;2022-09-24T15:53:17;13.54;95.76
71088;SHT31;58747;50.674;4.616;2022-09-24T15:55:43;13.57;95.69
71088;SHT31;58747;50.674;4.616;2022-09-24T15:58:11;13.44;95.49
71088;SHT31;58747;50.674;4.616;2022-09-24T16:00:38;13.40;96.01
71088;SHT31;58747;50.674;4.616;2022-09-24T16:03:04;13.36;95.77
71088;SHT31;58747;50.674;4.616;2022-09-24T16:05:30;13.29;96.02
71088;SHT31;58747;50.674;4.616;2022-09-24T16:07:55;13.27;96.28
71088;SHT31;58747;50.674;4.616;2022-09-24T16:10:20;13.33;96.52
71088;SHT31;58747;50.674;4.616;2022-09-24T16:12:46;13.42;96.45
71088;SHT31;58747;50.674;4.616;2022-09-24T16:15:13;13.47;96.40
71088;SHT31;58747;50.674;4.616;2022-09-24T16:17:39;13.50;96.51
71088;SHT31;58747;50.674;4.616;2022-09-24T16:20:05;13.53;96.19
71088;SHT31;58747;50.674;4.616;2022-09-24T16:22:31;13.52;95.90
71088;SHT31;58747;50.674;4.616;2022-09-24T16:24:56;13.43;95.82
71088;SHT31;58747;50.674;4.616;2022-09-24T16:27:22;13.43;96.29
71088;SHT31;58747;50.674;4.616;2022-09-24T16:29:47;13.47;96.53
71088;SHT31;58747;50.674;4.616;2022-09-24T16:32:13;13.44;96.20
71088;SHT31;58747;50.674;4.616;2022-09-24T16:34:39;13.42;96.20
71088;SHT31;58747;50.674;4.616;2022-09-24T16:37:05;13.36;95.91
71088;SHT31;58747;50.674;4.616;2022-09-24T16:39:31;13.33;96.46
71088;SHT31;58747;50.674;4.616;2022-09-24T16:41:57;13.30;96.58
71088;SHT31;58747;50.674;4.616;2022-09-24T16:44:22;13.35;96.51
71088;SHT31;58747;50.674;4.616;2022-09-24T16:46:47;13.32;96.76
71088;SHT31;58747;50.674;4.616;2022-09-24T16:49:13;13.32;96.53
71088;SHT31;58747;50.674;4.616;2022-09-24T16:51:38;13.32;96.43
71088;SHT31;58747;50.674;4.616;2022-09-24T16:54:04;13.29;96.73
71088;SHT31;58747;50.674;4.616;2022-09-24T16:56:30;13.26;96.82
71088;SHT31;58747;50.674;4.616;2022-09-24T16:58:56;13.30;96.79
71088;SHT31;58747;50.674;4.616;2022-09-24T17:01:22;13.30;96.73
71088;SHT31;58747;50.674;4.616;2022-09-24T17:03:54;13.33;96.61
71088;SHT31;58747;50.674;4.616;2022-09-24T17:06:25;13.30;96.53
71088;SHT31;58747;50.674;4.616;2022-09-24T17:08:50;13.30;96.57
71088;SHT31;58747;50.674;4.616;2022-09-24T17:11:34;13.29;96.49
71088;SHT31;58747;50.674;4.616;2022-09-24T17:14:00;13.33;96.60
71088;SHT31;58747;50.674;4.616;2022-09-24T17:16:26;13.33;96.64
71088;SHT31;58747;50.674;4.616;2022-09-24T17:18:52;13.32;96.63
71088;SHT31;58747;50.674;4.616;2022-09-24T17:21:21;13.32;96.69
71088;SHT31;58747;50.674;4.616;2022-09-24T17:23:46;13.26;96.84
71088;SHT31;58747;50.674;4.616;2022-09-24T17:26:15;13.22;96.57
71088;SHT31;58747;50.674;4.616;2022-09-24T17:28:42;13.23;96.70
71088;SHT31;58747;50.674;4.616;2022-09-24T17:31:09;13.15;96.57
71088;SHT31;58747;50.674;4.616;2022-09-24T17:33:35;13.19;96.44
71088;SHT31;58747;50.674;4.616;2022-09-24T17:36:03;13.18;96.82
71088;SHT31;58747;50.674;4.616;2022-09-24T17:38:30;13.13;96.71